Time;durP1;ratioP1;P1;durP2;ratioP2;P2;SDS_P1;SDS_P2;PMS_P1;PMS_P2;Temp;Humidity;BMP_temperature;BMP_pressure;BME280_temperature;BME280_humidity;BME280_pressure;Samples;Min_cycle;Max_cycle;Signal;HPM_P1;HPM_P2
2021/04/11 00:00:21;;;;;;;4.35;1.75;;;6.10;90.90;;;;;;4991417;28;20030;-72
2021/04/11 00:02:47;;;;;;;2.47;1.35;;;6.20;90.90;;;;;;4974554;28;20030;-72
2021/04/11 00:05:13;;;;;;;3.25;1.60;;;6.20;90.80;;;;;;4991068;28;20025;-72
2021/04/11 00:07:39;;;;;;;3.50;1.48;;;6.20;90.70;;;;;;4992004;28;20033;-72
2021/04/11 00:10:09;;;;;;;3.30;1.67;;;6.20;90.70;;;;;;4991633;28;20026;-72
2021/04/11 00:12:34;;;;;;;3.22;2.25;;;6.20;90.70;;;;;;4992049;28;20077;-72
2021/04/11 00:15:00;;;;;;;2.17;1.48;;;6.20;90.70;;;;;;4992031;28;20039;-72
2021/04/11 00:17:26;;;;;;;4.47;1.55;;;6.20;91.00;;;;;;4991084;28;20022;-72
2021/04/11 00:19:51;;;;;;;2.45;1.30;;;6.20;90.60;;;;;;4991913;28;20467;-71
2021/04/11 00:22:17;;;;;;;3.80;1.75;;;6.30;90.60;;;;;;4992247;28;20395;-72
2021/04/11 00:24:42;;;;;;;3.17;1.90;;;6.20;90.50;;;;;;4995517;28;20071;-71
2021/04/11 00:27:08;;;;;;;4.40;1.67;;;6.10;90.60;;;;;;4978007;28;20081;-72
2021/04/11 00:29:34;;;;;;;3.05;1.65;;;6.20;90.60;;;;;;4994650;28;20585;-72
2021/04/11 00:31:59;;;;;;;2.92;1.67;;;6.20;90.60;;;;;;4995426;28;20340;-72
2021/04/11 00:34:26;;;;;;;2.65;1.48;;;6.10;90.60;;;;;;4995087;28;20058;-72
2021/04/11 00:36:51;;;;;;;3.55;2.13;;;6.10;90.60;;;;;;4977891;28;20383;-71
2021/04/11 00:39:17;;;;;;;2.95;1.83;;;6.10;90.50;;;;;;4994182;28;20023;-72
2021/04/11 00:41:47;;;;;;;2.60;1.48;;;6.10;90.60;;;;;;4995173;28;20503;-72
2021/04/11 00:44:13;;;;;;;2.30;1.35;;;6.10;90.50;;;;;;4994254;28;20022;-70
2021/04/11 00:46:52;;;;;;;2.65;1.63;;;6.10;90.50;;;;;;4994034;28;20119;-73
2021/04/11 00:49:36;;;;;;;3.25;1.70;;;6.10;90.40;;;;;;4994724;28;20030;-72
2021/04/11 00:52:04;;;;;;;3.00;1.55;;;6.10;90.40;;;;;;4995174;28;20026;-72
2021/04/11 00:54:30;;;;;;;2.92;1.45;;;6.10;90.40;;;;;;4994433;28;20026;-72
2021/04/11 00:56:56;;;;;;;4.82;1.88;;;6.10;90.40;;;;;;4995086;28;20382;-70
2021/04/11 00:59:21;;;;;;;3.38;1.63;;;6.10;90.40;;;;;;4994249;28;20034;-72
2021/04/11 01:01:48;;;;;;;3.72;1.88;;;6.10;90.40;;;;;;4977204;28;20058;-72
2021/04/11 01:04:15;;;;;;;3.55;1.58;;;6.20;90.30;;;;;;4994279;28;20105;-72
2021/04/11 01:07:00;;;;;;;1.92;1.27;;;6.20;90.30;;;;;;4977180;28;20475;-73
2021/04/11 01:09:33;;;;;;;1.48;1.10;;;6.20;90.20;;;;;;4993939;28;20027;-71
2021/04/11 01:12:01;;;;;;;3.83;2.03;;;6.10;90.30;;;;;;4994481;28;20109;-72
2021/04/11 01:14:32;;;;;;;4.35;1.88;;;6.00;90.30;;;;;;4993943;28;20184;-72
2021/04/11 01:16:59;;;;;;;4.45;1.88;;;6.10;90.30;;;;;;4994839;28;20095;-72
2021/04/11 01:19:33;;;;;;;4.93;2.05;;;6.00;90.30;;;;;;4993891;28;20066;-72
2021/04/11 01:22:13;;;;;;;4.43;2.30;;;6.00;90.30;;;;;;4994761;28;20031;-72
2021/04/11 01:24:53;;;;;;;3.03;1.73;;;6.00;90.30;;;;;;4976652;28;20033;-71
2021/04/11 01:27:22;;;;;;;2.80;1.90;;;6.00;90.20;;;;;;4994009;28;20034;-72
2021/04/11 01:29:49;;;;;;;4.55;1.83;;;6.00;90.20;;;;;;4993962;28;20129;-72
2021/04/11 01:32:15;;;;;;;3.25;1.38;;;6.00;90.20;;;;;;4993023;28;20371;-72
2021/04/11 01:34:43;;;;;;;2.25;1.25;;;6.00;90.20;;;;;;4993908;28;20022;-72
2021/04/11 01:37:12;;;;;;;3.20;1.50;;;6.00;90.20;;;;;;4994209;28;20030;-71
2021/04/11 01:39:41;;;;;;;3.65;1.40;;;6.00;90.10;;;;;;4993163;28;20046;-72
2021/04/11 01:42:07;;;;;;;5.30;2.10;;;5.90;90.20;;;;;;4994262;28;20038;-72
2021/04/11 01:44:36;;;;;;;2.85;1.42;;;5.90;90.20;;;;;;4993485;28;20031;-72
2021/04/11 01:47:03;;;;;;;4.32;2.03;;;5.90;90.10;;;;;;4993751;28;20069;-72
2021/04/11 01:49:29;;;;;;;3.38;1.55;;;5.90;90.10;;;;;;4993583;28;20037;-72
2021/04/11 01:52:13;;;;;;;3.75;1.63;;;5.90;90.10;;;;;;4993997;28;20022;-72
2021/04/11 01:54:40;;;;;;;3.80;1.80;;;5.90;90.40;;;;;;4993362;28;20494;-72
2021/04/11 01:57:09;;;;;;;5.43;2.03;;;5.90;90.00;;;;;;4993599;28;20045;-72
2021/04/11 01:59:35;;;;;;;3.15;1.50;;;5.90;90.10;;;;;;4991719;28;20320;-71
2021/04/11 02:02:04;;;;;;;4.07;1.95;;;5.90;90.20;;;;;;4993806;28;20039;-72
2021/04/11 02:04:30;;;;;;;4.35;1.60;;;5.90;90.10;;;;;;4992995;28;20058;-72
2021/04/11 02:07:02;;;;;;;3.38;1.55;;;5.80;90.10;;;;;;4976096;28;20057;-72
2021/04/11 02:09:34;;;;;;;3.05;1.77;;;5.90;90.10;;;;;;4992980;28;20056;-71
2021/04/11 02:12:00;;;;;;;3.45;2.05;;;5.90;90.00;;;;;;4993251;28;20022;-73
2021/04/11 02:14:27;;;;;;;2.75;1.45;;;5.90;90.00;;;;;;4992873;28;20022;-72
2021/04/11 02:16:54;;;;;;;4.43;1.70;;;5.90;90.00;;;;;;4993119;28;20018;-72
2021/04/11 02:19:25;;;;;;;3.08;1.50;;;5.90;90.00;;;;;;4992779;28;20030;-73
2021/04/11 02:21:57;;;;;;;3.30;1.40;;;5.90;90.00;;;;;;4993460;28;20027;-72
2021/04/11 02:24:23;;;;;;;;;;;5.90;90.10;;;;;;4993105;28;20027;-73
2021/04/11 02:26:48;;;;;;;3.70;2.00;;;5.80;90.00;;;;;;4992951;28;20281;-74
2021/04/11 02:29:22;;;;;;;3.35;1.75;;;5.80;90.00;;;;;;4993816;28;20383;-72
2021/04/11 02:31:47;;;;;;;3.53;1.70;;;5.80;90.00;;;;;;4977120;28;20073;-72
2021/04/11 02:34:22;;;;;;;4.30;1.42;;;5.80;90.00;;;;;;4993535;28;20066;-72
2021/04/11 02:36:51;;;;;;;5.75;1.63;;;5.90;90.00;;;;;;4975893;28;20037;-71
2021/04/11 02:39:25;;;;;;;2.08;1.50;;;5.90;90.00;;;;;;4992833;28;20471;-72
2021/04/11 02:41:52;;;;;;;3.00;1.83;;;5.80;90.00;;;;;;4993402;28;20034;-73
2021/04/11 02:44:19;;;;;;;4.07;1.58;;;5.80;90.00;;;;;;4992456;28;20026;-73
2021/04/11 02:46:45;;;;;;;2.75;1.27;;;5.90;90.10;;;;;;4992228;28;20018;-72
2021/04/11 02:49:14;;;;;;;2.35;1.40;;;5.90;90.10;;;;;;4975389;28;20022;-72
2021/04/11 02:51:41;;;;;;;2.53;1.55;;;5.90;90.00;;;;;;4974570;28;20423;-72
2021/04/11 02:54:13;;;;;;;3.72;1.77;;;6.00;90.00;;;;;;4992809;28;20530;-72
2021/04/11 02:56:40;;;;;;;1.92;1.30;;;6.00;90.00;;;;;;4992362;28;20030;-72
2021/04/11 02:59:06;;;;;;;3.40;1.70;;;6.00;90.00;;;;;;4992600;28;20026;-72
2021/04/11 03:01:38;;;;;;;5.88;1.95;;;6.00;90.00;;;;;;4992369;28;20030;-72
2021/04/11 03:04:04;;;;;;;2.47;1.45;;;6.00;90.00;;;;;;4992286;28;20022;-72
2021/04/11 03:06:38;;;;;;;1.77;1.23;;;6.00;89.90;;;;;;4974469;28;20026;-73
2021/04/11 03:09:07;;;;;;;2.70;1.40;;;6.00;90.00;;;;;;4992653;28;20065;-72
2021/04/11 03:11:41;;;;;;;2.30;1.17;;;6.00;90.00;;;;;;4991860;28;20081;-72
2021/04/11 03:14:09;;;;;;;1.70;1.40;;;6.00;90.00;;;;;;4992763;28;20451;-72
2021/04/11 03:16:37;;;;;;;2.05;1.35;;;6.00;89.90;;;;;;4991714;28;20030;-72
2021/04/11 03:19:03;;;;;;;2.67;1.52;;;6.10;89.90;;;;;;4992712;28;20027;-72
2021/04/11 03:21:29;;;;;;;2.88;1.50;;;6.10;89.90;;;;;;4991471;28;20045;-72
2021/04/11 03:23:56;;;;;;;0.70;0.70;;;6.10;89.80;;;;;;4975235;28;20026;-72
2021/04/11 03:26:45;;;;;;;2.38;1.67;;;6.10;89.80;;;;;;4992245;28;20165;-72
2021/04/11 03:29:27;;;;;;;1.67;0.90;;;6.10;89.90;;;;;;4992594;28;20415;-71
2021/04/11 03:31:59;;;;;;;3.38;1.27;;;6.10;89.80;;;;;;4992373;28;20034;-73
2021/04/11 03:34:26;;;;;;;1.05;0.90;;;6.10;89.90;;;;;;4991547;28;20030;-69
2021/04/11 03:36:52;;;;;;;1.35;1.02;;;6.10;89.90;;;;;;4992536;28;20061;-72
2021/04/11 03:39:18;;;;;;;1.25;1.05;;;6.10;89.80;;;;;;4991607;28;20027;-72
2021/04/11 03:41:46;;;;;;;0.77;0.77;;;6.10;89.90;;;;;;4991735;28;20349;-71
2021/04/11 03:44:18;;;;;;;0.82;0.70;;;6.10;89.80;;;;;;4990819;28;20033;-72
2021/04/11 03:46:56;;;;;;;1.35;0.88;;;6.10;89.70;;;;;;4991578;28;20031;-72
2021/04/11 03:49:24;;;;;;;0.80;0.70;;;6.00;89.80;;;;;;4992254;28;20018;-72
2021/04/11 03:51:53;;;;;;;1.40;1.30;;;6.00;89.80;;;;;;4991216;28;20112;-72
2021/04/11 03:54:23;;;;;;;0.70;0.70;;;6.00;89.80;;;;;;4992190;28;20034;-72
2021/04/11 03:57:06;;;;;;;1.17;0.90;;;6.00;89.80;;;;;;4991845;28;20026;-71
2021/04/11 03:59:41;;;;;;;0.77;0.77;;;6.00;89.70;;;;;;4977888;28;20383;-72
2021/04/11 04:02:08;;;;;;;1.48;0.98;;;6.00;89.60;;;;;;4996207;28;20356;-73
2021/04/11 04:04:37;;;;;;;1.67;1.00;;;6.00;89.50;;;;;;4995081;28;20033;-73
2021/04/11 04:07:18;;;;;;;1.33;1.15;;;6.10;89.40;;;;;;4995613;28;20054;-72
2021/04/11 04:10:00;;;;;;;1.27;0.90;;;6.10;89.40;;;;;;4995553;28;20026;-72
2021/04/11 04:12:40;;;;;;;1.17;0.90;;;6.10;89.20;;;;;;4995867;28;20023;-72
2021/04/11 04:15:30;;;;;;;0.77;0.70;;;6.00;89.30;;;;;;4995924;28;20027;-72
2021/04/11 04:18:37;;;;;;;1.00;0.90;;;6.10;89.40;;;;;;4995711;28;20026;-73
2021/04/11 04:21:40;;;;;;;0.77;0.77;;;6.00;89.30;;;;;;4975044;28;20103;-72
2021/04/11 04:24:11;;;;;;;1.00;0.90;;;6.00;89.10;;;;;;4995433;28;20069;-72
2021/04/11 04:26:58;;;;;;;3.25;1.30;;;6.00;89.20;;;;;;4994623;28;20034;-72
2021/04/11 04:29:24;;;;;;;1.15;0.80;;;6.00;89.10;;;;;;4995487;28;20050;-73
2021/04/11 04:32:01;;;;;;;1.60;0.98;;;6.00;89.10;;;;;;4994803;28;20027;-73
2021/04/11 04:35:01;;;;;;;1.35;1.02;;;6.10;89.20;;;;;;4995483;28;20019;-73
2021/04/11 04:37:37;;;;;;;1.55;0.90;;;6.10;89.00;;;;;;4995452;28;20022;-71
2021/04/11 04:40:07;;;;;;;1.48;1.00;;;6.00;89.00;;;;;;4994814;28;20061;-72
2021/04/11 04:42:43;;;;;;;1.80;0.98;;;6.10;89.10;;;;;;4994416;28;20033;-72
2021/04/11 04:45:30;;;;;;;5.03;1.00;;;6.10;89.10;;;;;;4994833;28;20026;-72
2021/04/11 04:48:18;;;;;;;1.13;0.90;;;6.10;88.90;;;;;;4995135;28;20022;-72
2021/04/11 04:50:48;;;;;;;1.35;1.00;;;6.20;88.90;;;;;;4994232;28;20030;-71
2021/04/11 04:53:21;;;;;;;2.97;0.90;;;6.20;88.80;;;;;;4995106;28;20018;-72
2021/04/11 04:55:51;;;;;;;1.52;0.90;;;6.20;88.90;;;;;;4994237;28;20041;-72
2021/04/11 04:58:31;;;;;;;1.20;1.10;;;6.20;88.90;;;;;;4995118;28;20022;-72
2021/04/11 05:01:07;;;;;;;2.20;1.20;;;6.20;88.80;;;;;;4994992;28;20471;-72
2021/04/11 05:03:51;;;;;;;1.50;0.90;;;6.20;88.80;;;;;;4976829;28;20097;-72
2021/04/11 05:06:34;;;;;;;1.05;0.80;;;6.20;88.80;;;;;;4994705;28;20066;-72
2021/04/11 05:09:03;;;;;;;1.63;1.00;;;6.20;88.80;;;;;;4994086;28;20014;-72
2021/04/11 05:11:45;;;;;;;2.53;1.15;;;6.20;89.40;;;;;;4994674;28;20085;-72
2021/04/11 05:14:14;;;;;;;1.50;1.10;;;6.20;88.80;;;;;;4994617;28;20027;-72
2021/04/11 05:16:44;;;;;;;1.42;0.90;;;6.20;88.70;;;;;;4993615;28;20026;-72
2021/04/11 05:19:11;;;;;;;1.83;1.00;;;6.30;89.30;;;;;;4977107;28;20028;-72
2021/04/11 05:21:46;;;;;;;0.95;0.90;;;6.20;88.70;;;;;;4976531;28;20529;-71
2021/04/11 05:24:21;;;;;;;1.48;1.00;;;6.20;88.60;;;;;;4994496;28;20085;-71
2021/04/11 05:27:28;;;;;;;1.63;1.10;;;6.20;88.60;;;;;;4993554;28;20069;-72
2021/04/11 05:30:00;;;;;;;1.30;0.82;;;6.20;88.50;;;;;;4992861;28;20054;-72
2021/04/11 05:32:26;;;;;;;0.82;0.82;;;6.20;88.60;;;;;;4976927;28;20435;-72
2021/04/11 05:34:52;;;;;;;0.95;0.73;;;6.20;88.50;;;;;;4976223;28;20065;-72
2021/04/11 05:37:23;;;;;;;1.13;0.90;;;6.30;88.50;;;;;;4994251;28;20050;-72
2021/04/11 05:39:55;;;;;;;;;;;6.30;88.40;;;;;;4993785;28;20058;-72
2021/04/11 05:42:27;;;;;;;0.70;0.70;;;6.20;88.30;;;;;;4994082;28;19906;-72
2021/04/11 05:45:09;;;;;;;;;;;6.30;88.30;;;;;;4993576;28;20172;-72
2021/04/11 05:47:43;;;;;;;0.75;0.75;;;6.30;88.10;;;;;;4993428;28;19909;-72
2021/04/11 05:50:20;;;;;;;1.15;0.90;;;6.30;88.00;;;;;;4994024;28;20109;-73
2021/04/11 05:53:07;;;;;;;1.33;0.85;;;6.40;87.80;;;;;;4993362;28;20026;-73
2021/04/11 05:55:39;;;;;;;0.82;0.82;;;6.40;87.60;;;;;;4993938;28;20033;-73
2021/04/11 05:58:20;;;;;;;1.25;0.85;;;6.50;87.80;;;;;;4993859;28;20080;-73
2021/04/11 06:00:55;;;;;;;2.38;1.00;;;6.50;87.80;;;;;;4993100;28;20443;-73
2021/04/11 06:03:25;;;;;;;0.80;0.80;;;6.50;87.70;;;;;;4976299;28;20058;-72
2021/04/11 06:05:56;;;;;;;2.78;0.80;;;6.50;87.70;;;;;;4993024;28;20057;-72
2021/04/11 06:08:59;;;;;;;0.70;0.60;;;6.50;87.70;;;;;;4993660;28;20029;-72
2021/04/11 06:11:31;;;;;;;0.90;0.80;;;6.60;87.60;;;;;;4992179;28;20037;-71
2021/04/11 06:14:30;;;;;;;1.50;0.80;;;6.60;87.70;;;;;;4993174;28;20076;-71
2021/04/11 06:16:56;;;;;;;1.30;0.95;;;6.50;87.60;;;;;;4975847;28;20396;-73
2021/04/11 06:19:22;;;;;;;1.23;1.02;;;6.60;87.70;;;;;;4992356;28;20023;-72
2021/04/11 06:22:13;;;;;;;0.80;0.70;;;6.50;87.70;;;;;;4991365;28;20482;-71
2021/04/11 06:24:47;;;;;;;1.10;1.00;;;6.50;87.80;;;;;;4992851;28;20030;-70
2021/04/11 06:27:51;;;;;;;1.63;1.05;;;6.50;87.80;;;;;;4993251;28;20022;-72
2021/04/11 06:30:25;;;;;;;1.90;0.98;;;6.50;87.60;;;;;;4992045;28;20394;-72
2021/04/11 06:33:26;;;;;;;2.03;1.23;;;6.60;87.50;;;;;;4992542;28;20030;-73
2021/04/11 06:36:22;;;;;;;1.00;0.90;;;6.60;87.40;;;;;;4949077;28;20466;-73
2021/04/11 06:38:52;;;;;;;1.42;1.00;;;6.70;87.30;;;;;;4988365;28;20065;-73
2021/04/11 06:41:24;;;;;;;0.60;0.60;;;6.70;87.20;;;;;;4992551;28;20050;-73
2021/04/11 06:44:34;;;;;;;1.00;0.90;;;6.70;87.10;;;;;;4992451;28;20062;-73
2021/04/11 06:47:30;;;;;;;0.80;0.63;;;6.70;87.10;;;;;;4964311;28;20046;-72
2021/04/11 06:50:24;;;;;;;0.70;0.70;;;6.80;87.00;;;;;;4992092;28;20022;-72
2021/04/11 06:53:13;;;;;;;0.77;0.70;;;6.80;87.00;;;;;;4992498;28;20108;-72
2021/04/11 06:56:18;;;;;;;1.27;0.90;;;6.80;87.00;;;;;;4992830;28;20034;-72
2021/04/11 06:58:44;;;;;;;0.85;0.85;;;6.80;87.00;;;;;;4992303;28;20037;-73
2021/04/11 07:01:09;;;;;;;1.02;0.90;;;6.80;87.00;;;;;;4992374;28;20378;-73
2021/04/11 07:04:09;;;;;;;0.60;0.60;;;6.80;86.90;;;;;;4992436;28;20126;-73
2021/04/11 07:06:52;;;;;;;1.60;0.85;;;6.90;86.60;;;;;;4974843;28;20080;-72
2021/04/11 07:09:40;;;;;;;0.90;0.90;;;6.90;86.50;;;;;;4992497;28;20474;-73
2021/04/11 07:12:53;;;;;;;1.05;0.70;;;7.00;86.20;;;;;;4992774;28;20028;-73
2021/04/11 07:15:33;;;;;;;0.77;0.77;;;7.00;86.00;;;;;;4939310;28;20075;-73
2021/04/11 07:18:17;;;;;;;0.60;0.60;;;7.10;86.10;;;;;;4991916;28;20058;-73
2021/04/11 07:21:36;;;;;;;1.00;0.68;;;7.10;86.00;;;;;;4991870;28;20033;-73
2021/04/11 07:24:21;;;;;;;0.70;0.60;;;7.00;85.90;;;;;;4931635;29;20346;-72
2021/04/11 07:27:05;;;;;;;0.70;0.70;;;7.00;85.90;;;;;;4980377;28;20038;-72
2021/04/11 07:29:54;;;;;;;0.73;0.73;;;7.00;85.60;;;;;;4974595;28;20041;-72
2021/04/11 07:32:47;;;;;;;0.90;0.73;;;7.00;85.60;;;;;;4991396;28;20062;-72
2021/04/11 07:35:21;;;;;;;0.70;0.60;;;7.10;85.40;;;;;;4992476;28;20493;-72
2021/04/11 07:38:03;;;;;;;1.42;0.80;;;7.10;85.20;;;;;;4991661;28;20066;-72
2021/04/11 07:40:55;;;;;;;0.57;0.57;;;7.20;85.00;;;;;;4974458;28;20054;-71
2021/04/11 07:43:57;;;;;;;1.02;0.80;;;7.30;84.80;;;;;;4992243;28;20023;-73
2021/04/11 07:46:41;;;;;;;;;;;7.30;84.70;;;;;;4971831;28;20124;-72
2021/04/11 07:49:31;;;;;;;0.80;0.73;;;7.10;84.50;;;;;;4991481;28;19961;-72
2021/04/11 07:52:07;;;;;;;2.60;0.80;;;7.10;84.80;;;;;;4991303;28;20411;-72
2021/04/11 07:55:05;;;;;;;0.77;0.70;;;7.10;84.90;;;;;;4992128;28;20553;-73
2021/04/11 07:58:02;;;;;;;3.60;1.30;;;7.00;85.00;;;;;;4974837;28;20386;-72
2021/04/11 08:00:52;;;;;;;1.02;0.90;;;7.00;85.00;;;;;;4991994;28;20033;-71
2021/04/11 08:03:29;;;;;;;1.55;0.90;;;7.00;84.90;;;;;;4992150;28;20046;-72
2021/04/11 08:06:07;;;;;;;1.60;0.82;;;7.00;84.80;;;;;;4991718;28;20404;-72
2021/04/11 08:08:50;;;;;;;1.35;0.80;;;7.00;84.70;;;;;;4992077;28;20106;-73
2021/04/11 08:11:37;;;;;;;1.70;0.95;;;7.00;84.80;;;;;;4992026;28;20031;-72
2021/04/11 08:14:21;;;;;;;0.80;0.73;;;7.10;84.70;;;;;;4991076;28;20033;-72
2021/04/11 08:17:25;;;;;;;2.75;1.00;;;7.10;84.60;;;;;;4991348;28;20034;-72
2021/04/11 08:20:09;;;;;;;1.30;0.90;;;7.20;84.40;;;;;;4991325;28;20101;-72
2021/04/11 08:22:44;;;;;;;1.52;0.98;;;7.20;84.30;;;;;;4992036;28;20030;-72
2021/04/11 08:25:31;;;;;;;1.13;0.73;;;7.00;84.50;;;;;;4991137;28;20033;-73
2021/04/11 08:28:23;;;;;;;2.15;0.93;;;7.10;84.50;;;;;;4991361;28;20034;-72
2021/04/11 08:31:16;;;;;;;1.70;0.73;;;7.10;84.20;;;;;;4973586;28;20430;-72
2021/04/11 08:34:16;;;;;;;1.58;1.05;;;7.10;84.20;;;;;;4991716;28;20032;-72
2021/04/11 08:37:21;;;;;;;0.75;0.63;;;7.10;84.10;;;;;;4991893;28;20363;-72
2021/04/11 08:40:07;;;;;;;1.20;0.93;;;7.20;83.90;;;;;;4968683;28;20047;-73
2021/04/11 08:43:14;;;;;;;0.70;0.70;;;7.20;83.60;;;;;;4992054;28;20039;-72
2021/04/11 08:46:10;;;;;;;0.60;0.60;;;7.30;83.40;;;;;;4994607;28;20025;-72
2021/04/11 08:48:53;;;;;;;2.20;0.80;;;7.30;83.20;;;;;;4995185;28;20039;-72
2021/04/11 08:51:38;;;;;;;1.00;0.70;;;7.50;83.00;;;;;;4995386;28;20037;-73
2021/04/11 08:54:22;;;;;;;0.80;0.80;;;7.50;82.60;;;;;;4994326;28;20035;-72
2021/04/11 08:57:14;;;;;;;2.40;1.30;;;7.60;82.60;;;;;;4976974;28;20053;-72
2021/04/11 09:00:00;;;;;;;1.85;0.90;;;7.60;82.30;;;;;;4994637;28;20030;-72
2021/04/11 09:02:47;;;;;;;1.70;0.77;;;7.60;82.30;;;;;;4994503;28;20026;-72
2021/04/11 09:05:40;;;;;;;2.03;0.80;;;7.70;82.30;;;;;;4993970;28;20030;-72
2021/04/11 09:08:30;;;;;;;1.05;0.70;;;7.80;82.10;;;;;;4994173;28;20022;-73
2021/04/11 09:11:22;;;;;;;0.60;0.60;;;7.80;81.70;;;;;;4976656;28;20062;-72
2021/04/11 09:13:47;;;;;;;;;;;7.70;81.80;;;;;;4972059;28;20038;-73
2021/04/11 09:16:41;;;;;;;2.53;0.70;;;7.60;82.00;;;;;;4993984;28;19976;-73
2021/04/11 09:19:30;;;;;;;2.13;1.27;;;7.70;81.80;;;;;;4993792;28;20462;-73
2021/04/11 09:22:20;;;;;;;0.52;0.52;;;7.80;81.90;;;;;;4993998;28;20463;-72
2021/04/11 09:25:11;;;;;;;0.80;0.75;;;7.90;81.80;;;;;;4994662;28;20463;-72
2021/04/11 09:27:49;;;;;;;0.50;0.50;;;8.10;81.40;;;;;;4994626;28;20106;-73
2021/04/11 09:30:43;;;;;;;0.60;0.60;;;8.30;81.00;;;;;;4993812;28;20482;-73
2021/04/11 09:33:29;;;;;;;2.13;0.82;;;8.40;80.60;;;;;;4976139;28;20081;-72
2021/04/11 09:36:22;;;;;;;0.57;0.57;;;8.50;80.20;;;;;;4975820;28;20023;-73
2021/04/11 09:39:20;;;;;;;1.05;0.77;;;8.50;79.90;;;;;;4976794;28;20379;-73
2021/04/11 09:42:04;;;;;;;0.55;0.55;;;8.40;80.00;;;;;;4951842;28;20047;-73
2021/04/11 09:44:59;;;;;;;0.77;0.77;;;8.40;79.90;;;;;;4974556;28;20034;-72
2021/04/11 09:47:45;;;;;;;3.72;0.75;;;8.50;79.70;;;;;;4973192;28;20023;-72
2021/04/11 09:50:44;;;;;;;0.77;0.68;;;8.60;79.30;;;;;;4974257;28;20027;-72
2021/04/11 09:53:24;;;;;;;0.60;0.60;;;8.60;79.20;;;;;;4972781;28;20118;-72
2021/04/11 09:56:15;;;;;;;0.60;0.60;;;8.60;79.10;;;;;;4973688;28;20471;-72
2021/04/11 09:59:01;;;;;;;0.75;0.70;;;8.70;79.10;;;;;;4974576;28;20023;-72
2021/04/11 10:01:36;;;;;;;3.10;0.88;;;8.80;78.60;;;;;;4972092;28;20031;-71
2021/04/11 10:04:29;;;;;;;0.57;0.57;;;8.80;78.60;;;;;;4972150;28;20031;-72
2021/04/11 10:07:30;;;;;;;0.40;0.40;;;8.80;78.20;;;;;;4973200;28;20027;-72
2021/04/11 10:10:18;;;;;;;0.85;0.60;;;8.60;78.00;;;;;;4973265;28;20038;-72
2021/04/11 10:13:32;;;;;;;1.60;0.60;;;8.50;78.40;;;;;;4974076;28;20062;-70
2021/04/11 10:16:18;;;;;;;0.80;0.60;;;8.60;78.30;;;;;;4954963;28;20115;-72
2021/04/11 10:19:25;;;;;;;0.57;0.52;;;8.70;78.30;;;;;;4973015;28;20029;-72
2021/04/11 10:22:20;;;;;;;0.63;0.52;;;8.70;78.00;;;;;;4973757;28;20057;-70
2021/04/11 10:25:10;;;;;;;0.40;0.40;;;8.70;78.00;;;;;;4972694;28;20051;-73
2021/04/11 10:27:57;;;;;;;0.75;0.70;;;8.70;78.00;;;;;;4971909;28;20038;-73
2021/04/11 10:30:24;;;;;;;0.95;0.73;;;8.70;78.20;;;;;;4972683;28;20099;-72
2021/04/11 10:32:53;;;;;;;0.50;0.50;;;8.60;78.30;;;;;;4971402;28;20019;-73
2021/04/11 10:35:34;;;;;;;0.90;0.65;;;8.50;78.30;;;;;;4973006;28;20058;-73
2021/04/11 10:38:10;;;;;;;2.05;0.77;;;8.50;78.40;;;;;;4973184;28;20463;-72
2021/04/11 10:40:39;;;;;;;0.40;0.40;;;8.50;78.50;;;;;;4977134;28;20076;-72
2021/04/11 10:43:39;;;;;;;0.60;0.60;;;8.40;78.30;;;;;;4992230;28;20076;-72
2021/04/11 10:46:23;;;;;;;1.52;0.70;;;8.40;78.00;;;;;;4992200;28;20018;-72
2021/04/11 10:49:13;;;;;;;0.93;0.63;;;8.40;78.10;;;;;;4992937;28;20101;-72
2021/04/11 10:52:08;;;;;;;1.23;0.70;;;8.60;78.10;;;;;;4992707;28;20056;-72
2021/04/11 10:54:58;;;;;;;0.57;0.57;;;8.80;77.70;;;;;;4992843;28;20022;-73
2021/04/11 10:57:49;;;;;;;2.40;1.20;;;8.90;77.10;;;;;;4992783;28;20044;-72
2021/04/11 11:00:30;;;;;;;0.60;0.60;;;9.00;77.00;;;;;;4990606;28;20372;-73
2021/04/11 11:03:01;;;;;;;0.60;0.60;;;9.10;76.80;;;;;;4992654;28;20026;-73
2021/04/11 11:06:01;;;;;;;1.50;0.80;;;9.20;76.70;;;;;;4990931;28;20062;-72
2021/04/11 11:08:26;;;;;;;0.50;0.50;;;9.30;76.70;;;;;;4992876;28;20106;-72
2021/04/11 11:11:34;;;;;;;2.05;0.93;;;9.30;76.40;;;;;;4992314;28;20101;-72
2021/04/11 11:14:18;;;;;;;0.63;0.63;;;9.30;76.30;;;;;;4991918;28;20030;-74
2021/04/11 11:17:23;;;;;;;1.55;0.50;;;9.20;76.00;;;;;;4992386;28;20118;-72
2021/04/11 11:20:16;;;;;;;1.42;0.55;;;9.10;76.30;;;;;;4991252;28;20040;-73
2021/04/11 11:22:54;;;;;;;0.50;0.50;;;9.10;76.40;;;;;;4992705;28;20052;-72
2021/04/11 11:25:53;;;;;;;0.75;0.60;;;9.10;76.40;;;;;;4991931;28;20137;-73
2021/04/11 11:28:37;;;;;;;0.68;0.60;;;9.10;75.60;;;;;;4990066;28;20041;-73
2021/04/11 11:31:10;;;;;;;3.40;0.75;;;9.20;75.30;;;;;;4990166;28;20022;-73
2021/04/11 11:33:57;;;;;;;0.55;0.55;;;9.30;75.00;;;;;;4992128;28;20027;-73
2021/04/11 11:36:29;;;;;;;0.75;0.63;;;9.40;73.90;;;;;;4991820;28;20074;-72
2021/04/11 11:39:10;;;;;;;0.65;0.65;;;9.30;73.00;;;;;;4992304;28;20485;-72
2021/04/11 11:41:48;;;;;;;0.50;0.50;;;9.20;73.00;;;;;;4992337;28;20085;-73
2021/04/11 11:44:28;;;;;;;0.55;0.55;;;9.20;73.30;;;;;;4991409;28;20105;-72
2021/04/11 11:47:01;;;;;;;1.30;0.60;;;9.20;73.30;;;;;;4990952;28;20309;-73
2021/04/11 11:49:48;;;;;;;0.40;0.40;;;9.30;72.70;;;;;;4991954;28;20054;-72
2021/04/11 11:52:24;;;;;;;0.50;0.50;;;9.40;72.30;;;;;;4991587;28;20019;-73
2021/04/11 11:55:11;;;;;;;0.80;0.70;;;9.50;71.90;;;;;;4992578;28;20044;-73
2021/04/11 11:57:51;;;;;;;2.33;0.60;;;9.60;71.60;;;;;;4992073;28;20070;-73
2021/04/11 12:00:25;;;;;;;1.10;0.73;;;9.60;71.60;;;;;;4991458;28;20022;-73
2021/04/11 12:03:12;;;;;;;0.75;0.50;;;9.50;71.60;;;;;;4992148;28;20024;-72
2021/04/11 12:05:47;;;;;;;0.32;0.32;;;9.50;71.90;;;;;;4991745;28;20030;-72
2021/04/11 12:08:31;;;;;;;1.50;0.70;;;9.60;72.10;;;;;;4991466;28;20038;-72
2021/04/11 12:11:01;;;;;;;0.60;0.60;;;9.60;71.80;;;;;;4990744;28;20033;-73
2021/04/11 12:13:36;;;;;;;3.95;0.75;;;9.70;71.90;;;;;;4991780;28;20042;-73
2021/04/11 12:16:01;;;;;;;0.40;0.40;;;9.80;71.70;;;;;;4991933;28;20068;-72
2021/04/11 12:18:51;;;;;;;3.20;0.70;;;9.70;71.70;;;;;;4992856;28;20031;-73
2021/04/11 12:21:27;;;;;;;0.93;0.73;;;9.70;71.70;;;;;;4994472;28;20562;-72
2021/04/11 12:24:18;;;;;;;0.68;0.40;;;9.60;72.20;;;;;;4995515;28;20106;-72
2021/04/11 12:26:52;;;;;;;0.80;0.80;;;9.60;71.60;;;;;;4995495;28;20363;-72
2021/04/11 12:29:22;;;;;;;0.60;0.60;;;9.50;71.30;;;;;;4994940;28;20076;-72
2021/04/11 12:32:17;;;;;;;0.83;0.67;;;9.40;71.50;;;;;;4995328;28;20102;-72
2021/04/11 12:35:04;;;;;;;0.63;0.43;;;9.40;71.00;;;;;;4995608;28;20033;-72
2021/04/11 12:37:48;;;;;;;0.75;0.50;;;9.30;71.10;;;;;;4995251;28;20026;-72
2021/04/11 12:40:14;;;;;;;0.57;0.50;;;9.20;71.30;;;;;;4994529;28;20206;-72
2021/04/11 12:43:14;;;;;;;0.60;0.60;;;9.20;71.10;;;;;;4995261;28;20503;-73
2021/04/11 12:46:02;;;;;;;0.75;0.65;;;9.40;71.10;;;;;;4995357;28;20423;-72
2021/04/11 12:48:33;;;;;;;0.80;0.68;;;9.40;70.60;;;;;;4994407;28;20030;-72
2021/04/11 12:51:10;;;;;;;0.50;0.50;;;9.40;70.60;;;;;;4995166;28;20505;-73
2021/04/11 12:54:02;;;;;;;0.40;0.40;;;9.50;70.50;;;;;;4994836;28;20106;-73
2021/04/11 12:56:29;;;;;;;;;;;9.50;70.30;;;;;;4994554;28;20117;-72
2021/04/11 12:59:10;;;;;;;0.60;0.50;;;9.40;70.20;;;;;;4994662;28;19905;-73
2021/04/11 13:01:56;;;;;;;1.05;0.70;;;9.40;69.90;;;;;;4994964;28;20026;-73
2021/04/11 13:04:45;;;;;;;0.70;0.65;;;9.50;70.00;;;;;;4992890;28;20360;-73
2021/04/11 13:07:30;;;;;;;0.60;0.50;;;9.60;69.90;;;;;;4994151;28;20022;-73
2021/04/11 13:10:15;;;;;;;0.40;0.40;;;9.70;69.40;;;;;;4994591;28;20117;-73
2021/04/11 13:13:04;;;;;;;1.40;0.40;;;9.90;69.90;;;;;;4994599;28;20022;-73
2021/04/11 13:15:40;;;;;;;0.50;0.50;;;10.00;69.10;;;;;;4993763;28;20435;-72
2021/04/11 13:18:11;;;;;;;0.45;0.45;;;10.20;68.40;;;;;;4994566;28;20460;-73
2021/04/11 13:20:37;;;;;;;;;;;10.20;68.40;;;;;;4994818;28;20030;-73
2021/04/11 13:23:18;;;;;;;0.80;0.60;;;10.10;67.70;;;;;;4994384;28;19917;-73
2021/04/11 13:25:59;;;;;;;0.82;0.60;;;10.20;67.60;;;;;;4994562;28;20022;-73
2021/04/11 13:28:37;;;;;;;0.98;0.77;;;10.30;67.80;;;;;;4992182;28;20371;-72
2021/04/11 13:31:09;;;;;;;1.88;0.90;;;10.40;67.80;;;;;;4994587;28;20142;-73
2021/04/11 13:34:27;;;;;;;0.80;0.63;;;10.50;67.20;;;;;;4993246;28;20037;-73
2021/04/11 13:36:55;;;;;;;1.55;0.70;;;10.60;66.70;;;;;;4977038;28;20097;-73
2021/04/11 13:39:23;;;;;;;0.63;0.50;;;10.50;66.70;;;;;;4993591;28;20061;-72
2021/04/11 13:41:57;;;;;;;0.57;0.40;;;10.50;66.30;;;;;;4993897;28;20054;-73
2021/04/11 13:44:41;;;;;;;0.55;0.50;;;10.50;66.50;;;;;;4993503;28;20030;-72
2021/04/11 13:47:51;;;;;;;0.50;0.45;;;10.50;65.90;;;;;;4994242;28;20105;-72
2021/04/11 13:50:32;;;;;;;1.17;0.57;;;10.40;66.00;;;;;;4961544;28;20035;-72
2021/04/11 13:53:06;;;;;;;0.73;0.73;;;10.30;66.10;;;;;;4993762;28;20105;-73
2021/04/11 13:55:58;;;;;;;1.05;0.50;;;10.20;65.60;;;;;;4993325;28;20061;-72
2021/04/11 13:58:34;;;;;;;0.60;0.55;;;10.00;65.50;;;;;;4974895;28;20145;-72
2021/04/11 14:01:15;;;;;;;3.10;0.70;;;9.90;65.10;;;;;;4992419;28;20034;-72